Flight Track Log - Related Links

Times and Time Zones

All times are in EDT time to prevent confusion due to time zone crossing. See the N5465S flight status page for this flight to view local times or setup timezone preferences in your user account.

Time Position Orientation Groundspeed Altitude Reporting Facility
EDT Latitude Longitude Course Direction KTS MPH feet Rate Location/Type
Sun 07:24:00 PM 35.2546 -82.5676 171° South  Level FlightAware Approximate
Sun 07:25:00 PM 35.2232 -82.5577 165° South  Level FlightAware Approximate
Sun 07:26:00 PM 35.1948 -82.5579 231° Southwest  Level FlightAware Approximate
Sun 07:27:00 PM 35.1743 -82.5886 231° Southwest  Level FlightAware Approximate
Sun 07:28:00 PM 35.1539 -82.6193 231° Southwest  Level FlightAware Approximate
Sun 07:29:00 PM 35.1334 -82.6500 231° Southwest  Level FlightAware Approximate
Sun 07:29:09 PM 35.3172 -82.4097 229° Southwest 146 168 7,900  Level Atlanta Center
Sun 07:30:00 PM 35.1129 -82.6807 231° Southwest  Level FlightAware Approximate
Sun 07:30:09 PM 35.2925 -82.4356 220° Southwest 131 151 8,000  Level Atlanta Center
Sun 07:31:00 PM 35.0925 -82.7114 231° Southwest  Level FlightAware Approximate
Sun 07:31:09 PM 35.2681 -82.4692 228° Southwest 131 151 7,900  Level Atlanta Center
Sun 07:32:00 PM 35.0720 -82.7421 231° Southwest  Level FlightAware Approximate
Sun 07:32:09 PM 35.2475 -82.5000 231° Southwest 131 151 8,000  Level Atlanta Center
Sun 07:33:00 PM 35.0509 -82.7721 229° Southwest  Level FlightAware Approximate
Sun 07:33:09 PM 35.2250 -82.5336 231° Southwest 131 151 7,900  Level Atlanta Center
Sun 07:34:00 PM 35.0296 -82.8019 229° Southwest  Level FlightAware Approximate
Sun 07:34:09 PM 35.2025 -82.5669 230° Southwest 126 145 7,900  Level Atlanta Center
Sun 07:35:09 PM 35.1797 -82.5981 228° Southwest 126 145 7,900 50 Level Atlanta Center
Sun 07:36:09 PM 35.1572 -82.6264 226° Southwest 120 138 8,000  Climbing Atlanta Center
Sun 07:37:09 PM 35.1325 -82.6597 228° Southwest 126 145 7,900  Descending Atlanta Center
Sun 07:38:09 PM 35.1100 -82.6906 228° Southwest 126 145 8,000  Climbing Atlanta Center
Sun 07:39:09 PM 35.0853 -82.7264 230° Southwest 132 152 7,900 -50 Descending Atlanta Center
Sun 07:40:09 PM 35.0647 -82.7597 233° Southwest 132 152 7,900  Level Atlanta Center
Sun 07:41:09 PM 35.0422 -82.7956 233° Southwest 137 158 7,900 50 Level Atlanta Center
Sun 07:42:09 PM 35.0194 -82.8264 228° Southwest 131 151 8,000 50 Climbing Atlanta Center
Sun 07:43:09 PM 34.9928 -82.8675 232° Southwest 137 158 8,000 -50 Level Atlanta Center
Sun 07:44:09 PM 34.9703 -82.9006 230° Southwest 131 151 7,900 -50 Descending Atlanta Center
Sun 07:45:09 PM 34.9475 -82.9389 234° Southwest 136 157 7,900 50 Level Atlanta Center
Sun 07:46:09 PM 34.9250 -82.9697 228° Southwest 131 151 8,000  Climbing Atlanta Center
Sun 07:47:09 PM 34.8981 -83.0031 225° Southwest 136 157 7,900 -50 Descending Atlanta Center
Sun 07:48:09 PM 34.8733 -83.0361 228° Southwest 136 157 7,900 -300 Level Atlanta Center
Sun 07:49:09 PM 34.8486 -83.0744 232° Southwest 136 157 7,300 -550 Descending Atlanta Center
Sun 07:50:09 PM 34.8239 -83.1128 232° Southwest 141 162 6,800 -500 Descending Atlanta Center
Sun 07:51:09 PM 34.7950 -83.1586 233° Southwest 153 176 6,300 -450 Descending Atlanta Center
Sun 07:52:09 PM 34.7700 -83.1892 225° Southwest 153 176 5,900 -200 Descending Atlanta Center
Sun 07:53:09 PM 34.7433 -83.2247 228° Southwest 148 170 5,900  Level Atlanta Center
Sun 07:54:09 PM 34.7206 -83.2603 232° Southwest 148 170 5,900  Level Atlanta Center
Sun 07:55:09 PM 34.6978 -83.2961 232° Southwest 140 161 5,900  Level Atlanta Center
Sun 07:56:09 PM 34.6728 -83.3214 220° Southwest 128 147 5,900  Level Atlanta Center
Sun 07:57:09 PM 34.6417 -83.3544 221° Southwest 133 153 5,900 50 Level Atlanta Center
Sun 07:58:09 PM 34.6169 -83.3825 223° Southwest 133 153 6,000  Climbing Atlanta Center
Sun 07:59:09 PM 34.5900 -83.4131 223° Southwest 138 159 5,900 -50 Descending Atlanta Center
Sun 08:00:09 PM 34.5608 -83.4436 221° Southwest 138 159 5,900  Level Atlanta Center
Sun 08:01:09 PM 34.5358 -83.4714 222° Southwest 138 159 5,900  Level Atlanta Center
Sun 08:02:09 PM 34.5089 -83.4994 221° Southwest 138 159 5,900  Level Atlanta Center
Sun 08:03:09 PM 34.4800 -83.5322 223° Southwest 138 159 5,900  Level Atlanta Center
Sun 08:04:09 PM 34.4528 -83.5628 223° Southwest 132 152 5,900 50 Level Atlanta Center
Sun 08:05:09 PM 34.4236 -83.5931 221° Southwest 132 152 6,000  Climbing Atlanta Center
Sun 08:06:09 PM 34.3967 -83.6233 223° Southwest 132 152 5,900 -50 Descending Atlanta Center
Sun 08:07:09 PM 34.3656 -83.6511 216° Southwest 139 160 5,900  Level Atlanta Center
Sun 08:08:09 PM 34.3425 -83.6789 225° Southwest 139 160 5,900  Level Atlanta Center
Sun 08:09:09 PM 34.3197 -83.7144 232° Southwest 134 154 5,900  Level Atlanta Center
Sun 08:10:09 PM 34.3075 -83.7572 251° West 134 154 5,900  Level Atlanta Center
Sun 08:12:09 PM 34.2742 -83.8378 243° Southwest 134 154 5,900  Level Atlanta Center
Sun 08:13:09 PM 34.2594 -83.8806 247° West 134 154 5,900  Level Atlanta Center
Sun 08:15:22 PM 34.2333 -83.9667 250° West 135 155 5,900  Level Atlanta TRACON
Sun 08:16:28 PM 34.2167 -84.0167 248° West 139 160 5,900  Level Atlanta TRACON
Sun 08:17:28 PM 34.2000 -84.0667 248° West 152 175 5,900 -150 Level Atlanta TRACON
Sun 08:18:28 PM 34.1833 -84.1000 239° Southwest 148 170 5,600 -526 Descending Atlanta TRACON
Sun 08:19:22 PM 34.1667 -84.1500 248° West 156 180 4,900 -684 Descending Atlanta TRACON
Sun 08:20:22 PM 34.1500 -84.2000 248° West 152 175 4,300 -500 Descending Atlanta TRACON
Sun 08:21:22 PM 34.1333 -84.2500 248° West 148 170 3,900 -200 Descending Atlanta TRACON
Sun 08:22:22 PM 34.1167 -84.2833 239° Southwest 132 152 3,900  Level Atlanta TRACON
Sun 08:23:22 PM 34.0833 -84.2833 180° South 129 148 3,900  Level Atlanta TRACON
Sun 08:24:22 PM 34.0500 -84.3000 203° Southwest 128 147 3,900  Level Atlanta TRACON
Sun 08:25:22 PM 34.0167 -84.3167 203° Southwest 136 157 3,900  Level Atlanta TRACON
Sun 08:26:22 PM 34.0167 -84.3500 270° West 127 146 3,900  Level Atlanta TRACON
Sun 08:27:16 PM 34.0167 -84.4000 270° West 129 148 3,900 -211 Level Atlanta TRACON
Sun 08:28:16 PM 34.0167 -84.4333 270° West 110 127 3,500 -571 Descending Atlanta TRACON
Sun 08:29:22 PM 34.0167 -84.4667 270° West 112 129 2,700 -667 Descending Atlanta TRACON
Sun 08:30:22 PM 34.0167 -84.5167 270° West 107 123 2,100 -500 Descending Atlanta TRACON
Sun 08:31:22 PM 34.0167 -84.5500 270° West 101 116 1,700 -400 Descending Atlanta TRACON

Login

Don't have an account? Register now (free) for customized features, flight alerts, and more!